Time,TemperatureF,DewpointF,PressureIn,WindDirection,WindDirectionDegrees,WindSpeedMPH,WindSpeedGustMPH,Humidity,HourlyPrecipIn,Conditions,Clouds,dailyrainin,SoftwareType,DateUTC
2013-03-09 00:03:00,55.0,44.7,29.94,SSE,158,8.7,12.3,68,0.00,,---,0.00,VWS V14.01,2013-03-09 06:03:00,
2013-03-09 00:08:00,55.0,44.7,29.94,South,180,10.1,16.8,68,0.00,,---,0.00,VWS V14.01,2013-03-09 06:08:00,
2013-03-09 00:13:00,55.0,45.1,29.94,South,180,6.0,9.6,69,0.00,,---,0.00,VWS V14.01,2013-03-09 06:13:00,
2013-03-09 00:18:00,55.0,45.1,29.94,SSW,202,7.6,8.7,69,0.00,,---,0.00,VWS V14.01,2013-03-09 06:18:00,
2013-03-09 00:23:00,55.0,45.5,29.94,SSW,202,9.6,10.7,70,0.00,,---,0.00,VWS V14.01,2013-03-09 06:23:00,
2013-03-09 00:28:00,54.9,45.7,29.94,SE,135,6.3,12.5,71,0.00,,---,0.00,VWS V14.01,2013-03-09 06:28:00,
2013-03-09 00:34:00,54.7,46.2,29.94,SSW,202,12.5,15.2,73,0.00,,---,0.00,VWS V14.01,2013-03-09 06:34:00,
2013-03-09 00:39:00,54.5,46.4,29.94,SSW,202,11.0,12.3,74,0.00,,---,0.00,VWS V14.01,2013-03-09 06:39:00,
2013-03-09 00:44:00,54.1,46.8,29.94,SSW,202,6.5,10.7,76,0.00,,---,0.00,VWS V14.01,2013-03-09 06:44:00,
2013-03-09 00:49:00,53.8,47.4,29.94,South,180,9.4,9.4,79,0.00,,---,0.00,VWS V14.01,2013-03-09 06:49:00,
2013-03-09 00:54:00,53.2,47.9,29.94,South,180,3.8,7.6,82,0.00,,---,0.00,VWS V14.01,2013-03-09 06:54:00,
2013-03-09 00:59:00,53.1,47.7,29.94,SSW,202,5.6,7.8,82,0.00,,---,0.00,VWS V14.01,2013-03-09 06:59:00,
2013-03-09 01:05:00,53.2,47.6,29.94,SSW,202,6.9,8.1,81,0.00,,---,0.00,VWS V14.01,2013-03-09 07:05:00,
2013-03-09 01:11:00,53.4,46.7,29.94,South,180,9.6,10.3,78,0.00,,---,0.00,VWS V14.01,2013-03-09 07:11:00,
2013-03-09 01:16:00,53.6,46.2,29.91,South,180,3.4,3.4,76,0.00,,---,0.00,VWS V14.01,2013-03-09 07:16:00,
2013-03-09 01:21:00,53.8,46.0,29.91,South,180,8.7,8.7,75,0.00,,---,0.00,VWS V14.01,2013-03-09 07:21:00,
2013-03-09 01:26:00,54.1,46.8,29.91,SSW,202,6.5,6.5,76,0.00,,---,0.00,VWS V14.01,2013-03-09 07:26:00,
2013-03-09 01:31:00,54.0,47.3,29.91,SSW,202,11.9,11.9,78,0.00,,---,0.00,VWS V14.01,2013-03-09 07:31:00,
2013-03-09 01:37:00,53.8,47.8,29.91,SSE,158,11.0,11.0,80,0.00,,---,0.00,VWS V14.01,2013-03-09 07:37:00,
2013-03-09 01:42:00,53.6,47.6,29.91,SSE,158,4.7,6.5,80,0.00,,---,0.00,VWS V14.01,2013-03-09 07:42:00,
2013-03-09 01:47:00,53.4,47.4,29.91,SSE,158,4.5,6.3,80,0.00,,---,0.00,VWS V14.01,2013-03-09 07:47:00,
2013-03-09 01:52:00,53.4,47.1,29.91,SSE,158,4.3,7.6,79,0.00,,---,0.00,VWS V14.01,2013-03-09 07:52:00,
2013-03-09 01:58:00,53.4,47.1,29.88,SSE,158,7.4,7.4,79,0.00,,---,0.00,VWS V14.01,2013-03-09 07:58:00,
2013-03-09 02:03:00,53.4,46.7,29.88,SSE,158,3.1,8.5,78,0.00,,---,0.00,VWS V14.01,2013-03-09 08:03:00,
2013-03-09 02:08:00,53.6,46.2,29.88,South,180,5.8,6.0,76,0.00,,---,0.00,VWS V14.01,2013-03-09 08:08:00,
2013-03-09 02:13:00,53.8,46.4,29.91,South,180,5.6,5.6,76,0.00,,---,0.00,VWS V14.01,2013-03-09 08:13:00,
2013-03-09 02:18:00,53.8,46.0,29.91,South,180,6.0,12.1,75,0.00,,---,0.00,VWS V14.01,2013-03-09 08:18:00,
2013-03-09 02:24:00,54.0,45.9,29.91,SSE,158,6.5,10.5,74,0.00,,---,0.00,VWS V14.01,2013-03-09 08:24:00,
2013-03-09 02:29:00,54.1,46.4,29.91,South,180,7.4,9.8,75,0.00,,---,0.00,VWS V14.01,2013-03-09 08:29:00,
2013-03-09 02:34:00,54.0,46.6,29.91,SSW,202,5.8,12.1,76,0.00,,---,0.00,VWS V14.01,2013-03-09 08:34:00,
2013-03-09 02:39:00,53.8,47.1,29.91,SSE,158,7.6,7.6,78,0.00,,---,0.00,VWS V14.01,2013-03-09 08:39:00,
2013-03-09 02:45:00,53.4,47.7,29.91,SSW,202,2.5,6.9,81,0.00,,---,0.00,VWS V14.01,2013-03-09 08:45:00,
2013-03-09 02:50:00,53.1,48.0,29.91,SSW,202,4.9,8.7,83,0.00,,---,0.00,VWS V14.01,2013-03-09 08:50:00,
2013-03-09 02:55:00,53.1,48.0,29.91,SSW,202,10.1,10.1,83,0.00,,---,0.00,VWS V14.01,2013-03-09 08:55:00,
2013-03-09 03:01:00,52.7,48.0,29.91,SSE,158,2.7,3.1,84,0.00,,---,0.00,VWS V14.01,2013-03-09 09:01:00,
2013-03-09 03:06:00,52.7,48.3,29.91,SSE,158,3.1,3.8,85,0.00,,---,0.00,VWS V14.01,2013-03-09 09:06:00,
2013-03-09 03:11:00,52.7,48.6,29.91,SSE,158,2.2,3.1,86,0.00,,---,0.00,VWS V14.01,2013-03-09 09:11:00,
2013-03-09 03:16:00,52.7,48.6,29.88,South,180,7.8,7.8,86,0.00,,---,0.00,VWS V14.01,2013-03-09 09:16:00,
2013-03-09 03:22:00,52.9,48.8,29.88,South,180,0.9,2.2,86,0.00,,---,0.00,VWS V14.01,2013-03-09 09:22:00,
2013-03-09 03:27:00,53.1,48.7,29.85,SSE,158,2.5,6.0,85,0.00,,---,0.00,VWS V14.01,2013-03-09 09:27:00,
2013-03-09 03:32:00,53.2,48.8,29.85,SSE,158,3.4,4.3,85,0.00,,---,0.00,VWS V14.01,2013-03-09 09:32:00,
2013-03-09 03:37:00,53.2,48.8,29.85,SSW,202,6.5,8.1,85,0.00,,---,0.00,VWS V14.01,2013-03-09 09:37:00,
2013-03-09 03:43:00,53.4,48.7,29.85,SSW,202,3.1,6.0,84,0.00,,---,0.00,VWS V14.01,2013-03-09 09:43:00,
2013-03-09 03:48:00,53.6,48.6,29.85,SSW,202,3.4,10.1,83,0.00,,---,0.00,VWS V14.01,2013-03-09 09:48:00,
2013-03-09 03:54:00,53.8,48.8,29.85,East,90,5.4,6.5,83,0.00,,---,0.00,VWS V14.01,2013-03-09 09:54:00,
2013-03-09 03:59:00,54.0,48.6,29.82,SE,135,3.6,7.2,82,0.00,,---,0.00,VWS V14.01,2013-03-09 09:59:00,
2013-03-09 04:05:00,54.0,48.6,29.82,SSW,202,4.9,4.9,82,0.00,,---,0.00,VWS V14.01,2013-03-09 10:05:00,
2013-03-09 04:10:00,54.0,48.9,29.82,SSW,202,4.9,6.3,83,0.00,,---,0.00,VWS V14.01,2013-03-09 10:10:00,
2013-03-09 04:16:00,54.0,48.9,29.88,SSW,202,4.0,6.0,83,0.00,,---,0.00,VWS V14.01,2013-03-09 10:16:00,
2013-03-09 04:21:00,54.0,48.9,29.88,SSE,158,6.5,6.5,83,0.00,,---,0.00,VWS V14.01,2013-03-09 10:21:00,
2013-03-09 04:26:00,54.0,48.9,29.88,SSE,158,11.0,11.2,83,0.00,,---,0.00,VWS V14.01,2013-03-09 10:26:00,
2013-03-09 04:32:00,54.0,48.6,29.88,SSE,158,10.5,12.1,82,0.00,,---,0.00,VWS V14.01,2013-03-09 10:32:00,
2013-03-09 04:37:00,54.1,48.8,29.88,South,180,4.3,6.0,82,0.00,,---,0.00,VWS V14.01,2013-03-09 10:37:00,
2013-03-09 04:42:00,54.0,48.3,29.85,SSE,158,5.8,9.4,81,0.00,,---,0.00,VWS V14.01,2013-03-09 10:42:00,
2013-03-09 04:47:00,54.0,48.3,29.85,SSE,158,6.5,7.8,81,0.00,,---,0.00,VWS V14.01,2013-03-09 10:47:00,
2013-03-09 04:53:00,54.0,47.6,29.85,SSE,158,5.8,8.5,79,0.00,,---,0.00,VWS V14.01,2013-03-09 10:53:00,
2013-03-09 04:58:00,53.8,47.4,29.85,South,180,11.4,11.4,79,0.00,,---,0.00,VWS V14.01,2013-03-09 10:58:00,
2013-03-09 05:03:00,53.4,47.7,29.85,SSE,158,5.6,10.5,81,0.00,,---,0.00,VWS V14.01,2013-03-09 11:03:00,
2013-03-09 05:09:00,53.1,47.7,29.85,SSE,158,10.3,12.1,82,0.00,,---,0.00,VWS V14.01,2013-03-09 11:09:00,
2013-03-09 05:14:00,52.9,47.9,29.82,SE,135,3.1,8.7,83,0.00,,---,0.00,VWS V14.01,2013-03-09 11:14:00,
2013-03-09 05:19:00,52.7,47.7,29.82,South,180,4.3,8.5,83,0.00,,---,0.00,VWS V14.01,2013-03-09 11:19:00,
2013-03-09 05:25:00,52.5,47.8,29.82,South,180,7.6,7.6,84,0.00,,---,0.00,VWS V14.01,2013-03-09 11:25:00,
2013-03-09 05:31:00,52.3,48.0,29.82,South,180,9.8,13.6,85,0.00,,---,0.00,VWS V14.01,2013-03-09 11:31:00,
2013-03-09 05:36:00,52.2,48.4,29.82,ESE,112,7.4,7.4,87,0.00,,---,0.00,VWS V14.01,2013-03-09 11:36:00,
2013-03-09 05:41:00,51.6,48.8,29.79,SE,135,9.8,9.8,90,0.00,,---,0.00,VWS V14.01,2013-03-09 11:41:00,
2013-03-09 05:47:00,51.4,48.9,29.79,SSW,202,3.6,9.4,91,0.00,,---,0.00,VWS V14.01,2013-03-09 11:47:00,
2013-03-09 05:52:00,51.4,49.2,29.79,South,180,2.9,8.1,92,0.00,,---,0.00,VWS V14.01,2013-03-09 11:52:00,
2013-03-09 05:58:00,51.3,49.0,29.79,ESE,112,3.4,6.5,92,0.00,,---,0.00,VWS V14.01,2013-03-09 11:58:00,
2013-03-09 06:03:00,51.1,49.1,29.79,South,180,2.7,4.7,93,0.00,,---,0.00,VWS V14.01,2013-03-09 12:03:00,
2013-03-09 06:08:00,51.1,49.1,29.79,SSW,202,4.0,4.9,93,0.00,,---,0.00,VWS V14.01,2013-03-09 12:08:00,
2013-03-09 06:14:00,51.1,49.1,29.79,SE,135,3.6,5.8,93,0.00,,---,0.00,VWS V14.01,2013-03-09 12:14:00,
2013-03-09 06:19:00,51.3,49.6,29.79,South,180,3.4,7.8,94,0.00,,---,0.00,VWS V14.01,2013-03-09 12:19:00,
2013-03-09 06:25:00,51.4,50.1,29.79,SSE,158,4.3,8.5,95,0.00,,---,0.00,VWS V14.01,2013-03-09 12:25:00,
2013-03-09 06:31:00,51.6,50.0,29.79,SSW,202,6.0,6.3,94,0.00,,---,0.00,VWS V14.01,2013-03-09 12:31:00,
2013-03-09 06:36:00,52.0,50.0,29.79,SSW,202,8.1,8.1,93,0.00,,---,0.00,VWS V14.01,2013-03-09 12:36:00,
2013-03-09 06:42:00,52.2,50.2,29.79,South,180,5.6,6.3,93,0.00,,---,0.00,VWS V14.01,2013-03-09 12:42:00,
2013-03-09 06:47:00,52.3,50.4,29.79,SSE,158,3.6,6.3,93,0.00,,---,0.00,VWS V14.01,2013-03-09 12:47:00,
2013-03-09 06:53:00,52.7,50.7,29.79,South,180,4.3,6.7,93,0.00,,---,0.00,VWS V14.01,2013-03-09 12:53:00,
2013-03-09 06:59:00,52.9,50.6,29.79,South,180,6.3,7.4,92,0.00,,---,0.00,VWS V14.01,2013-03-09 12:59:00,
2013-03-09 07:04:00,53.1,50.8,29.79,SE,135,3.4,4.0,92,0.00,,---,0.00,VWS V14.01,2013-03-09 13:04:00,
2013-03-09 07:10:00,53.2,51.0,29.79,South,180,3.6,7.6,92,0.00,,---,0.00,VWS V14.01,2013-03-09 13:10:00,
2013-03-09 07:15:00,53.6,51.0,29.79,SSE,158,6.3,6.3,91,0.00,,---,0.00,VWS V14.01,2013-03-09 13:15:00,
2013-03-09 07:21:00,54.0,51.4,29.79,SSW,202,9.6,9.6,91,0.00,,---,0.00,VWS V14.01,2013-03-09 13:21:00,
2013-03-09 07:27:00,54.3,51.5,29.79,South,180,3.8,7.8,90,0.00,,---,0.00,VWS V14.01,2013-03-09 13:27:00,
2013-03-09 07:32:00,54.5,51.6,29.79,SSW,202,8.7,8.7,90,0.00,,---,0.00,VWS V14.01,2013-03-09 13:32:00,
2013-03-09 07:38:00,54.5,51.3,29.79,SSW,202,6.0,6.0,89,0.00,,---,0.00,VWS V14.01,2013-03-09 13:38:00,
2013-03-09 07:43:00,54.5,51.3,29.79,South,180,8.7,8.7,89,0.00,,---,0.00,VWS V14.01,2013-03-09 13:43:00,
2013-03-09 07:49:00,54.5,51.3,29.79,South,180,5.4,5.4,89,0.00,,---,0.00,VWS V14.01,2013-03-09 13:49:00,
2013-03-09 07:55:00,54.7,51.2,29.79,South,180,8.7,9.4,88,0.00,,---,0.00,VWS V14.01,2013-03-09 13:55:00,
2013-03-09 08:00:00,54.5,51.3,29.79,SSE,158,4.9,7.4,89,0.00,,---,0.00,VWS V14.01,2013-03-09 14:00:00,
2013-03-09 08:05:00,54.5,51.3,29.79,SSW,202,5.6,7.4,89,0.00,,---,0.00,VWS V14.01,2013-03-09 14:05:00,
2013-03-09 08:11:00,54.5,51.3,29.79,South,180,5.8,7.8,89,0.00,,---,0.00,VWS V14.01,2013-03-09 14:11:00,
2013-03-09 08:16:00,54.5,51.3,29.79,SSW,202,6.5,10.1,89,0.00,,---,0.00,VWS V14.01,2013-03-09 14:16:00,
2013-03-09 08:21:00,54.5,51.3,29.79,South,180,3.1,6.3,89,0.00,,---,0.00,VWS V14.01,2013-03-09 14:21:00,
2013-03-09 08:27:00,54.5,51.3,29.79,South,180,4.9,10.3,89,0.00,,---,0.00,VWS V14.01,2013-03-09 14:27:00,
2013-03-09 08:32:00,54.3,51.5,29.79,South,180,3.8,5.4,90,0.00,,---,0.00,VWS V14.01,2013-03-09 14:32:00,
2013-03-09 08:38:00,54.1,51.6,29.79,SSE,158,7.6,7.6,91,0.00,,---,0.00,VWS V14.01,2013-03-09 14:38:00,
2013-03-09 08:44:00,53.8,51.8,29.79,South,180,6.3,10.7,93,0.00,,---,0.00,VWS V14.01,2013-03-09 14:44:00,
2013-03-09 08:49:00,54.0,52.3,29.79,South,180,5.6,10.1,94,0.00,,---,0.00,VWS V14.01,2013-03-09 14:49:00,
2013-03-09 08:55:00,54.1,52.5,29.79,SSE,158,6.7,6.7,94,0.00,,---,0.00,VWS V14.01,2013-03-09 14:55:00,
2013-03-09 09:00:00,54.1,52.5,29.76,South,180,4.0,11.0,94,0.00,,---,0.00,VWS V14.01,2013-03-09 15:00:00,
2013-03-09 09:05:00,54.0,52.3,29.76,South,180,6.3,13.2,94,0.00,,---,0.00,VWS V14.01,2013-03-09 15:05:00,
2013-03-09 09:10:00,53.8,52.1,29.76,South,180,3.1,7.6,94,0.00,,---,0.00,VWS V14.01,2013-03-09 15:10:00,
2013-03-09 09:16:00,53.8,52.4,29.79,South,180,6.3,7.6,95,0.00,,---,0.00,VWS V14.01,2013-03-09 15:16:00,
2013-03-09 09:21:00,53.6,52.2,29.79,South,180,4.9,6.3,95,0.00,,---,0.00,VWS V14.01,2013-03-09 15:21:00,
2013-03-09 09:27:00,53.6,52.2,29.79,SSW,202,6.0,6.3,95,0.00,,---,0.00,VWS V14.01,2013-03-09 15:27:00,
2013-03-09 09:33:00,53.6,52.5,29.79,South,180,3.1,8.5,96,0.00,,---,0.00,VWS V14.01,2013-03-09 15:33:00,
2013-03-09 09:38:00,53.6,52.5,29.79,South,180,8.1,8.1,96,0.00,,---,0.00,VWS V14.01,2013-03-09 15:38:00,
2013-03-09 09:44:00,53.6,52.5,29.79,SW,225,4.9,4.9,96,0.00,,---,0.00,VWS V14.01,2013-03-09 15:44:00,
2013-03-09 09:49:00,53.8,52.7,29.79,South,180,7.6,10.5,96,0.00,,---,0.00,VWS V14.01,2013-03-09 15:49:00,
2013-03-09 09:54:00,54.0,53.1,29.79,South,180,6.0,8.5,97,0.00,,---,0.00,VWS V14.01,2013-03-09 15:54:00,
2013-03-09 10:00:00,54.0,53.1,29.76,SSW,202,6.3,6.3,97,0.00,,---,0.00,VWS V14.01,2013-03-09 16:00:00,
2013-03-09 10:05:00,54.0,53.1,29.76,South,180,2.7,7.4,97,0.00,,---,0.00,VWS V14.01,2013-03-09 16:05:00,
2013-03-09 10:11:00,54.0,53.1,29.76,SSE,158,3.1,11.4,97,0.00,,---,0.00,VWS V14.01,2013-03-09 16:11:00,
2013-03-09 10:16:00,54.0,52.8,29.76,SSE,158,6.0,12.8,96,0.00,,---,0.00,VWS V14.01,2013-03-09 16:16:00,
2013-03-09 10:21:00,54.1,53.0,29.76,SSE,158,4.0,7.2,96,0.00,,---,0.00,VWS V14.01,2013-03-09 16:21:00,
2013-03-09 10:27:00,54.1,53.0,29.76,SSW,202,5.8,7.6,96,0.00,,---,0.00,VWS V14.01,2013-03-09 16:27:00,
2013-03-09 10:33:00,54.5,53.4,29.76,SSW,202,2.7,4.3,96,0.00,,---,0.00,VWS V14.01,2013-03-09 16:33:00,
2013-03-09 10:38:00,54.7,53.6,29.76,SSW,202,4.9,7.8,96,0.00,,---,0.00,VWS V14.01,2013-03-09 16:38:00,
2013-03-09 10:44:00,54.7,53.6,29.76,South,180,2.5,10.3,96,0.00,,---,0.00,VWS V14.01,2013-03-09 16:44:00,
2013-03-09 10:50:00,54.7,53.3,29.76,SSE,158,2.5,5.8,95,0.00,,---,0.00,VWS V14.01,2013-03-09 16:50:00,
2013-03-09 10:55:00,54.7,53.3,29.76,SSE,158,4.3,8.5,95,0.00,,---,0.00,VWS V14.01,2013-03-09 16:55:00,
2013-03-09 11:01:00,54.9,53.5,29.76,South,180,4.0,4.0,95,0.00,,---,0.00,VWS V14.01,2013-03-09 17:01:00,
2013-03-09 11:06:00,54.9,53.5,29.76,South,180,4.3,5.6,95,0.00,,---,0.00,VWS V14.01,2013-03-09 17:06:00,
2013-03-09 11:12:00,54.9,53.5,29.76,South,180,5.8,5.8,95,0.00,,---,0.00,VWS V14.01,2013-03-09 17:12:00,
2013-03-09 11:18:00,54.9,53.7,29.76,SSW,202,5.6,8.1,96,0.00,,---,0.00,VWS V14.01,2013-03-09 17:18:00,
2013-03-09 11:23:00,55.0,53.9,29.76,SE,135,2.5,3.6,96,0.00,,---,0.00,VWS V14.01,2013-03-09 17:23:00,
2013-03-09 11:29:00,55.0,53.9,29.76,SSW,202,2.9,4.3,96,0.00,,---,0.00,VWS V14.01,2013-03-09 17:29:00,
2013-03-09 11:34:00,55.0,53.9,29.76,SSW,202,2.7,6.0,96,0.00,,---,0.00,VWS V14.01,2013-03-09 17:34:00,
2013-03-09 11:40:00,55.0,53.9,29.76,SSW,202,3.6,3.8,96,0.00,,---,0.00,VWS V14.01,2013-03-09 17:40:00,
2013-03-09 11:46:00,55.0,53.9,29.76,SSW,202,3.6,4.7,96,0.00,,---,0.00,VWS V14.01,2013-03-09 17:46:00,
2013-03-09 11:51:00,55.2,54.1,29.76,South,180,2.7,3.4,96,0.00,,---,0.00,VWS V14.01,2013-03-09 17:51:00,
2013-03-09 11:57:00,55.2,54.4,29.76,SSW,202,4.0,4.0,97,0.00,,---,0.00,VWS V14.01,2013-03-09 17:57:00,
2013-03-09 12:02:00,55.2,54.4,29.76,SSE,158,3.6,4.3,97,0.00,,---,0.00,VWS V14.01,2013-03-09 18:02:00,
2013-03-09 12:07:00,55.2,54.4,29.76,SSE,158,2.9,4.0,97,0.00,,---,0.00,VWS V14.01,2013-03-09 18:07:00,
2013-03-09 12:12:00,55.2,54.4,29.76,South,180,3.6,3.6,97,0.00,,---,0.00,VWS V14.01,2013-03-09 18:12:00,
2013-03-09 12:18:00,55.2,54.4,29.76,SSW,202,2.9,2.9,97,0.00,,---,0.00,VWS V14.01,2013-03-09 18:18:00,
2013-03-09 12:24:00,55.4,54.6,29.76,South,180,2.2,3.1,97,0.00,,---,0.00,VWS V14.01,2013-03-09 18:24:00,
2013-03-09 12:29:00,55.4,54.6,29.74,SSW,202,1.6,2.5,97,0.00,,---,0.00,VWS V14.01,2013-03-09 18:29:00,
2013-03-09 12:34:00,55.6,54.8,29.74,SW,225,1.6,1.6,97,0.00,,---,0.00,VWS V14.01,2013-03-09 18:34:00,
2013-03-09 12:40:00,55.4,54.6,29.74,SSW,202,1.3,3.8,97,0.00,,---,0.00,VWS V14.01,2013-03-09 18:40:00,
2013-03-09 12:45:00,55.6,54.8,29.74,South,180,1.6,1.6,97,0.00,,---,0.00,VWS V14.01,2013-03-09 18:45:00,
2013-03-09 12:51:00,55.4,54.6,29.74,South,180,2.7,2.9,97,0.00,,---,0.00,VWS V14.01,2013-03-09 18:51:00,
2013-03-09 12:56:00,55.4,54.6,29.74,SE,135,0.0,2.9,97,0.00,,---,0.00,VWS V14.01,2013-03-09 18:56:00,
2013-03-09 13:01:00,55.4,54.6,29.74,SSW,202,3.1,4.0,97,0.00,,---,0.00,VWS V14.01,2013-03-09 19:01:00,
2013-03-09 13:07:00,55.4,54.6,29.74,SSW,202,1.6,2.9,97,0.00,,---,0.00,VWS V14.01,2013-03-09 19:07:00,
2013-03-09 13:12:00,55.9,55.1,29.71,SSE,158,0.0,1.1,97,0.00,,---,0.00,VWS V14.01,2013-03-09 19:12:00,
2013-03-09 13:18:00,56.7,55.8,29.71,South,180,0.0,0.0,97,0.00,,---,0.00,VWS V14.01,2013-03-09 19:18:00,
2013-03-09 13:23:00,56.7,55.8,29.71,SSE,158,2.7,3.1,97,0.00,,---,0.00,VWS V14.01,2013-03-09 19:23:00,
2013-03-09 13:29:00,56.3,55.5,29.74,SE,135,4.7,5.8,97,0.00,,---,0.00,VWS V14.01,2013-03-09 19:29:00,
2013-03-09 13:35:00,56.1,55.0,29.74,SE,135,3.8,3.8,96,0.00,,---,0.00,VWS V14.01,2013-03-09 19:35:00,
2013-03-09 13:40:00,55.9,54.8,29.74,SSE,158,2.2,2.7,96,0.00,,---,0.00,VWS V14.01,2013-03-09 19:40:00,
2013-03-09 13:46:00,55.9,54.8,29.74,SSW,202,2.5,4.3,96,0.00,,---,0.00,VWS V14.01,2013-03-09 19:46:00,
2013-03-09 13:52:00,55.9,54.8,29.74,SE,135,5.8,5.8,96,0.00,,---,0.00,VWS V14.01,2013-03-09 19:52:00,
2013-03-09 13:57:00,55.8,54.9,29.74,South,180,6.3,6.3,97,0.00,,---,0.00,VWS V14.01,2013-03-09 19:57:00,
2013-03-09 14:03:00,55.8,54.9,29.74,SSE,158,8.5,8.5,97,0.00,,---,0.00,VWS V14.01,2013-03-09 20:03:00,
2013-03-09 14:09:00,56.3,55.5,29.74,East,90,1.6,4.3,97,0.00,,---,0.00,VWS V14.01,2013-03-09 20:09:00,
2013-03-09 14:14:00,57.4,56.5,29.68,SE,135,5.8,6.3,97,0.00,,---,0.00,VWS V14.01,2013-03-09 20:14:00,
2013-03-09 14:19:00,59.0,58.2,29.68,SE,135,3.4,4.7,97,0.00,,---,0.00,VWS V14.01,2013-03-09 20:19:00,
2013-03-09 14:25:00,59.2,57.5,29.68,SE,135,10.3,10.5,94,0.00,,---,0.00,VWS V14.01,2013-03-09 20:25:00,
2013-03-09 14:31:00,60.1,58.0,29.68,SE,135,4.3,5.6,93,0.00,,---,0.00,VWS V14.01,2013-03-09 20:31:00,
2013-03-09 14:36:00,59.7,56.8,29.68,ESE,112,5.8,5.8,90,0.00,,---,0.00,VWS V14.01,2013-03-09 20:36:00,
2013-03-09 14:42:00,59.4,56.4,29.68,SSE,158,1.6,5.6,90,0.00,,---,0.00,VWS V14.01,2013-03-09 20:42:00,
2013-03-09 14:47:00,59.4,56.4,29.68,SSE,158,6.5,6.5,90,0.00,,---,0.00,VWS V14.01,2013-03-09 20:47:00,
2013-03-09 14:53:00,59.2,56.0,29.68,SSE,158,4.3,5.8,89,0.00,,---,0.00,VWS V14.01,2013-03-09 20:53:00,
2013-03-09 14:59:00,59.2,56.0,29.68,SSE,158,3.8,6.0,89,0.00,,---,0.00,VWS V14.01,2013-03-09 20:59:00,
2013-03-09 15:04:00,58.8,55.9,29.68,SSE,158,3.1,4.3,90,0.00,,---,0.00,VWS V14.01,2013-03-09 21:04:00,
2013-03-09 15:09:00,58.5,55.5,29.68,SSE,158,6.5,7.8,90,0.00,,---,0.00,VWS V14.01,2013-03-09 21:09:00,
2013-03-09 15:15:00,58.3,55.7,29.68,SE,135,7.2,8.5,91,0.00,,---,0.00,VWS V14.01,2013-03-09 21:15:00,
2013-03-09 15:20:00,58.8,56.2,29.68,SSE,158,3.4,6.0,91,0.00,,---,0.00,VWS V14.01,2013-03-09 21:20:00,
2013-03-09 15:25:00,59.7,56.8,29.68,SSW,202,3.1,5.4,90,0.00,,---,0.00,VWS V14.01,2013-03-09 21:25:00,
2013-03-09 15:31:00,60.1,56.8,29.68,SSE,158,6.3,12.3,89,0.00,,---,0.00,VWS V14.01,2013-03-09 21:31:00,
2013-03-09 15:37:00,61.0,57.7,29.68,South,180,6.5,6.5,89,0.00,,---,0.00,VWS V14.01,2013-03-09 21:37:00,
2013-03-09 15:42:00,60.4,57.2,29.68,SSE,158,10.5,10.5,89,0.00,,---,0.00,VWS V14.01,2013-03-09 21:42:00,
2013-03-09 15:47:00,60.3,57.0,29.68,SE,135,5.4,6.5,89,0.00,,---,0.00,VWS V14.01,2013-03-09 21:47:00,
2013-03-09 15:52:00,60.1,57.1,29.68,South,180,4.0,6.5,90,0.00,,---,0.00,VWS V14.01,2013-03-09 21:52:00,
2013-03-09 15:58:00,59.7,57.1,29.65,ESE,112,4.3,8.7,91,0.00,,---,0.00,VWS V14.01,2013-03-09 21:58:00,
2013-03-09 16:04:00,59.4,57.0,29.65,SSW,202,9.8,11.0,92,0.00,,---,0.00,VWS V14.01,2013-03-09 22:04:00,
2013-03-09 16:09:00,59.4,57.0,29.65,SSW,202,3.8,4.9,92,0.00,,---,0.00,VWS V14.01,2013-03-09 22:09:00,
2013-03-09 16:14:00,59.7,57.4,29.65,South,180,3.8,6.3,92,0.00,,---,0.00,VWS V14.01,2013-03-09 22:14:00,
2013-03-09 16:20:00,59.9,57.6,29.65,ESE,112,4.3,6.3,92,0.00,,---,0.00,VWS V14.01,2013-03-09 22:20:00,
2013-03-09 16:25:00,59.7,57.4,29.65,SSE,158,6.0,6.0,92,0.00,,---,0.00,VWS V14.01,2013-03-09 22:25:00,
2013-03-09 16:30:00,59.5,57.2,29.65,SE,135,8.1,10.1,92,0.00,,---,0.00,VWS V14.01,2013-03-09 22:30:00,
2013-03-09 16:35:00,59.2,56.9,29.65,South,180,6.5,10.3,92,0.00,,---,0.00,VWS V14.01,2013-03-09 22:35:00,
2013-03-09 16:41:00,59.2,56.9,29.65,South,180,6.0,10.3,92,0.00,,---,0.00,VWS V14.01,2013-03-09 22:41:00,
2013-03-09 16:47:00,59.5,57.2,29.65,SSW,202,3.8,6.5,92,0.00,,---,0.00,VWS V14.01,2013-03-09 22:47:00,
2013-03-09 16:52:00,59.9,57.0,29.65,SSE,158,6.0,11.2,90,0.00,,---,0.00,VWS V14.01,2013-03-09 22:52:00,
2013-03-09 16:58:00,59.9,56.3,29.65,South,180,7.2,7.2,88,0.00,,---,0.00,VWS V14.01,2013-03-09 22:58:00,
2013-03-09 17:03:00,59.7,55.5,29.65,South,180,4.9,12.1,86,0.00,,---,0.00,VWS V14.01,2013-03-09 23:03:00,
2013-03-09 17:08:00,59.9,55.7,29.65,SSE,158,2.5,5.6,86,0.00,,---,0.00,VWS V14.01,2013-03-09 23:08:00,
2013-03-09 17:13:00,59.9,55.4,29.65,South,180,6.3,10.1,85,0.00,,---,0.00,VWS V14.01,2013-03-09 23:13:00,
2013-03-09 17:19:00,59.7,55.2,29.65,South,180,7.4,8.5,85,0.00,,---,0.00,VWS V14.01,2013-03-09 23:19:00,
2013-03-09 17:24:00,59.4,55.2,29.65,South,180,4.3,6.3,86,0.00,,---,0.00,VWS V14.01,2013-03-09 23:24:00,
2013-03-09 17:30:00,59.2,55.3,29.65,South,180,5.4,6.7,87,0.00,,---,0.00,VWS V14.01,2013-03-09 23:30:00,
2013-03-09 17:36:00,58.8,55.3,29.65,SSW,202,4.3,7.6,88,0.00,,---,0.00,VWS V14.01,2013-03-09 23:36:00,
2013-03-09 17:42:00,58.6,55.4,29.65,SE,135,3.8,7.8,89,0.00,,---,0.00,VWS V14.01,2013-03-09 23:42:00,
2013-03-09 17:47:00,58.5,55.2,29.65,ESE,112,7.8,12.1,89,0.00,,---,0.00,VWS V14.01,2013-03-09 23:47:00,
2013-03-09 17:52:00,58.1,54.9,29.65,South,180,5.6,9.8,89,0.00,,---,0.00,VWS V14.01,2013-03-09 23:52:00,
2013-03-09 17:58:00,58.1,55.2,29.65,SSE,158,8.5,10.1,90,0.00,,---,0.00,VWS V14.01,2013-03-09 23:58:00,
2013-03-09 18:03:00,57.9,55.0,29.65,SE,135,8.5,12.1,90,0.00,,---,0.00,VWS V14.01,2013-03-10 00:03:00,
2013-03-09 18:09:00,57.9,55.0,29.65,South,180,4.5,9.8,90,0.00,,---,0.00,VWS V14.01,2013-03-10 00:09:00,
2013-03-09 18:15:00,57.7,54.8,29.62,South,180,7.8,14.3,90,0.00,,---,0.00,VWS V14.01,2013-03-10 00:15:00,
2013-03-09 18:20:00,57.6,53.7,29.62,South,180,5.8,6.0,87,0.00,,---,0.00,VWS V14.01,2013-03-10 00:20:00,
2013-03-09 18:26:00,57.2,53.1,29.62,South,180,3.6,6.0,86,0.00,,---,0.00,VWS V14.01,2013-03-10 00:26:00,
2013-03-09 18:32:00,57.0,52.6,29.65,South,180,6.5,6.5,85,0.00,,---,0.00,VWS V14.01,2013-03-10 00:32:00,
2013-03-09 18:37:00,56.8,52.1,29.65,SSE,158,6.9,6.9,84,0.00,,---,0.00,VWS V14.01,2013-03-10 00:37:00,
2013-03-09 18:43:00,56.7,51.6,29.65,West,270,6.0,6.0,83,0.00,,---,0.00,VWS V14.01,2013-03-10 00:43:00,
2013-03-09 18:48:00,56.7,51.2,29.65,SW,225,2.9,5.4,82,0.00,,---,0.00,VWS V14.01,2013-03-10 00:48:00,
2013-03-09 18:54:00,56.5,51.1,29.65,South,180,9.8,9.8,82,0.00,,---,0.00,VWS V14.01,2013-03-10 00:54:00,
2013-03-09 19:00:00,56.3,50.9,29.65,SSE,158,3.4,12.5,82,0.00,,---,0.00,VWS V14.01,2013-03-10 01:00:00,
2013-03-09 19:06:00,56.3,50.9,29.65,South,180,3.8,4.0,82,0.00,,---,0.00,VWS V14.01,2013-03-10 01:06:00,
2013-03-09 19:11:00,56.1,50.4,29.65,SSE,158,5.8,8.7,81,0.00,,---,0.00,VWS V14.01,2013-03-10 01:11:00,
2013-03-09 19:16:00,55.9,50.2,29.65,SSW,202,4.9,5.6,81,0.00,,---,0.00,VWS V14.01,2013-03-10 01:16:00,
2013-03-09 19:22:00,55.9,49.9,29.65,SSE,158,3.8,5.4,80,0.00,,---,0.00,VWS V14.01,2013-03-10 01:22:00,
2013-03-09 19:28:00,55.8,49.7,29.65,South,180,6.9,6.9,80,0.00,,---,0.00,VWS V14.01,2013-03-10 01:28:00,
2013-03-09 19:33:00,55.8,49.7,29.65,SSW,202,2.2,7.8,80,0.00,,---,0.00,VWS V14.01,2013-03-10 01:33:00,
2013-03-09 19:39:00,55.6,49.5,29.65,SSW,202,3.1,7.4,80,0.00,,---,0.00,VWS V14.01,2013-03-10 01:39:00,
2013-03-09 19:44:00,55.4,49.7,29.65,South,180,2.9,8.1,81,0.00,,---,0.00,VWS V14.01,2013-03-10 01:44:00,
2013-03-09 19:49:00,55.2,49.8,29.65,SSW,202,2.9,4.9,82,0.00,,---,0.00,VWS V14.01,2013-03-10 01:49:00,
2013-03-09 19:55:00,55.2,50.2,29.65,SSW,202,1.6,3.4,83,0.00,,---,0.00,VWS V14.01,2013-03-10 01:55:00,
2013-03-09 20:00:00,54.9,50.1,29.65,SSE,158,4.7,5.4,84,0.00,,---,0.00,VWS V14.01,2013-03-10 02:00:00,
2013-03-09 20:05:00,54.9,50.4,29.65,SSE,158,4.7,4.9,85,0.00,,---,0.00,VWS V14.01,2013-03-10 02:05:00,
2013-03-09 20:11:00,54.7,50.6,29.65,South,180,2.9,6.3,86,0.00,,---,0.00,VWS V14.01,2013-03-10 02:11:00,
2013-03-09 20:16:00,54.7,51.2,29.65,South,180,4.3,4.7,88,0.00,,---,0.00,VWS V14.01,2013-03-10 02:16:00,
2013-03-09 20:22:00,54.7,51.8,29.65,SSW,202,4.3,4.3,90,0.00,,---,0.00,VWS V14.01,2013-03-10 02:22:00,
2013-03-09 20:27:00,54.5,51.9,29.68,SSW,202,4.3,4.3,91,0.00,,---,0.00,VWS V14.01,2013-03-10 02:27:00,
2013-03-09 20:33:00,54.7,52.4,29.68,South,180,2.9,5.4,92,0.00,,---,0.00,VWS V14.01,2013-03-10 02:33:00,
2013-03-09 20:39:00,54.5,52.2,29.68,SSW,202,3.4,4.9,92,0.00,,---,0.00,VWS V14.01,2013-03-10 02:39:00,
2013-03-09 20:44:00,54.3,52.0,29.65,South,180,5.6,5.6,92,0.00,,---,0.00,VWS V14.01,2013-03-10 02:44:00,
2013-03-09 20:49:00,54.1,52.2,29.65,South,180,3.8,6.0,93,0.00,,---,0.00,VWS V14.01,2013-03-10 02:49:00,
2013-03-09 20:54:00,54.1,52.5,29.65,SSW,202,4.9,5.4,94,0.00,,---,0.00,VWS V14.01,2013-03-10 02:54:00,
2013-03-09 21:00:00,54.1,52.7,29.68,South,180,8.5,8.5,95,0.00,,---,0.00,VWS V14.01,2013-03-10 03:00:00,
2013-03-09 21:06:00,54.1,52.7,29.68,South,180,6.0,8.1,95,0.00,,---,0.00,VWS V14.01,2013-03-10 03:06:00,
2013-03-09 21:11:00,54.1,53.0,29.68,SSW,202,4.9,8.5,96,0.00,,---,0.00,VWS V14.01,2013-03-10 03:11:00,
2013-03-09 21:17:00,54.1,53.0,29.68,SE,135,3.8,7.8,96,0.00,,---,0.00,VWS V14.01,2013-03-10 03:17:00,
2013-03-09 21:23:00,54.3,53.5,29.68,SSE,158,6.7,6.7,97,0.00,,---,0.00,VWS V14.01,2013-03-10 03:23:00,
2013-03-09 21:28:00,54.3,53.5,29.68,South,180,5.8,5.8,97,0.00,,---,0.00,VWS V14.01,2013-03-10 03:28:00,
2013-03-09 21:33:00,54.3,53.5,29.68,SSE,158,6.0,6.0,97,0.00,,---,0.00,VWS V14.01,2013-03-10 03:33:00,
2013-03-09 21:38:00,54.3,53.5,29.68,South,180,4.0,8.5,97,0.00,,---,0.00,VWS V14.01,2013-03-10 03:38:00,
2013-03-09 21:43:00,54.3,53.5,29.68,SSE,158,3.8,7.6,97,0.00,,---,0.00,VWS V14.01,2013-03-10 03:43:00,
2013-03-09 21:48:00,54.3,53.8,29.68,South,180,5.4,5.4,98,0.00,,---,0.00,VWS V14.01,2013-03-10 03:48:00,
2013-03-09 21:53:00,54.3,53.8,29.68,South,180,2.7,5.6,98,0.00,,---,0.00,VWS V14.01,2013-03-10 03:53:00,
2013-03-09 21:59:00,54.3,53.8,29.68,SSE,158,4.9,6.0,98,0.00,,---,0.00,VWS V14.01,2013-03-10 03:59:00,
2013-03-09 22:04:00,54.3,53.8,29.68,South,180,7.6,8.1,98,0.00,,---,0.00,VWS V14.01,2013-03-10 04:04:00,
2013-03-09 22:09:00,54.3,53.5,29.68,SSW,202,4.0,4.9,97,0.00,,---,0.00,VWS V14.01,2013-03-10 04:09:00,
2013-03-09 22:15:00,54.1,53.3,29.68,South,180,3.6,5.4,97,0.00,,---,0.00,VWS V14.01,2013-03-10 04:15:00,
2013-03-09 22:20:00,54.1,53.3,29.68,South,180,3.6,6.3,97,0.00,,---,0.00,VWS V14.01,2013-03-10 04:20:00,
2013-03-09 22:25:00,54.0,53.1,29.68,SSW,202,2.0,4.0,97,0.00,,---,0.00,VWS V14.01,2013-03-10 04:25:00,
2013-03-09 22:31:00,53.8,52.4,29.68,SSW,202,2.7,4.3,95,0.00,,---,0.00,VWS V14.01,2013-03-10 04:31:00,
2013-03-09 22:37:00,53.8,52.1,29.68,SSE,158,3.8,4.0,94,0.00,,---,0.00,VWS V14.01,2013-03-10 04:37:00,
2013-03-09 22:42:00,53.8,51.5,29.65,SSW,202,4.5,8.7,92,0.00,,---,0.00,VWS V14.01,2013-03-10 04:42:00,
2013-03-09 22:48:00,53.6,50.7,29.65,SSW,202,3.1,4.9,90,0.00,,---,0.00,VWS V14.01,2013-03-10 04:48:00,
2013-03-09 22:53:00,53.2,50.4,29.65,SW,225,1.1,3.6,90,0.00,,---,0.00,VWS V14.01,2013-03-10 04:53:00,
2013-03-09 22:59:00,53.1,49.9,29.68,WSW,248,2.0,3.8,89,0.00,,---,0.00,VWS V14.01,2013-03-10 04:59:00,
2013-03-09 23:00:00,53.1,49.9,29.68,SSW,202,4.9,4.9,89,0.00,,---,0.00,VWS V14.01,2013-03-10 05:00:00,
2013-03-09 23:01:00,53.1,49.9,29.68,West,270,2.7,4.9,89,0.00,,---,0.00,VWS V14.01,2013-03-10 05:01:00,
2013-03-09 23:03:00,53.1,49.9,29.68,WNW,292,5.6,5.8,89,0.00,,---,0.00,VWS V14.01,2013-03-10 05:03:00,
2013-03-09 23:09:00,50.5,41.9,29.68,NW,315,4.7,10.3,72,0.00,,---,0.00,VWS V14.01,2013-03-10 05:09:00,
2013-03-09 23:10:00,50.5,41.9,29.68,NNE,22,7.8,7.8,72,0.00,,---,0.00,VWS V14.01,2013-03-10 05:10:00,
2013-03-09 23:16:00,45.7,38.2,29.68,NW,315,6.9,9.0,75,0.00,,---,0.00,VWS V14.01,2013-03-10 05:16:00,
2013-03-09 23:21:00,44.1,38.0,29.68,North,0,8.7,8.7,79,0.00,,---,0.00,VWS V14.01,2013-03-10 05:21:00,
2013-03-09 23:27:00,43.2,38.4,29.71,NW,315,8.1,9.8,83,0.00,,---,0.00,VWS V14.01,2013-03-10 05:27:00,
2013-03-09 23:33:00,42.6,39.0,29.71,NW,315,7.2,13.0,87,0.00,,---,0.00,VWS V14.01,2013-03-10 05:33:00,
2013-03-09 23:38:00,42.3,39.3,29.71,NW,315,8.7,11.0,89,0.00,,---,0.00,VWS V14.01,2013-03-10 05:38:00,
2013-03-09 23:44:00,42.3,39.8,29.71,NNW,338,3.6,8.1,91,0.00,,---,0.00,VWS V14.01,2013-03-10 05:44:00,
2013-03-09 23:50:00,42.3,40.1,29.71,WNW,292,7.6,10.3,92,0.00,,---,0.00,VWS V14.01,2013-03-10 05:50:00,
2013-03-09 23:55:00,42.3,40.4,29.71,North,0,8.1,11.0,93,0.00,,---,0.00,VWS V14.01,2013-03-10 05:55:00,